createdAt,value
2019-05-26T00:00:04.952Z,99.90
2019-05-26T00:02:34.309Z,99.90
2019-05-26T00:05:02.779Z,99.90
2019-05-26T00:07:31.270Z,99.90
2019-05-26T00:09:59.860Z,99.90
2019-05-26T00:12:28.290Z,99.90
2019-05-26T00:14:58.047Z,99.90
2019-05-26T00:17:25.362Z,99.90
2019-05-26T00:19:53.703Z,99.90
2019-05-26T00:22:20.871Z,99.90
2019-05-26T00:24:50.427Z,99.90
2019-05-26T00:27:18.870Z,99.90
2019-05-26T00:29:48.050Z,99.90
2019-05-26T00:32:15.680Z,99.90
2019-05-26T00:34:44.854Z,99.90
2019-05-26T00:37:12.807Z,99.90
2019-05-26T00:39:41.976Z,99.90
2019-05-26T00:42:09.409Z,99.90
2019-05-26T00:44:37.659Z,99.90
2019-05-26T00:47:05.111Z,99.90
2019-05-26T00:49:32.538Z,99.90
2019-05-26T00:51:59.869Z,99.90
2019-05-26T00:54:27.871Z,99.90
2019-05-26T00:56:55.605Z,99.90
2019-05-26T00:59:23.411Z,99.90
2019-05-26T01:01:51.918Z,99.90
2019-05-26T01:04:18.847Z,99.90
2019-05-26T01:06:48.782Z,99.90
2019-05-26T01:09:16.148Z,99.90
2019-05-26T01:11:46.222Z,99.90
2019-05-26T01:14:14.083Z,99.90
2019-05-26T01:16:42.191Z,99.90
2019-05-26T01:19:09.830Z,99.90
2019-05-26T01:21:38.986Z,99.90
2019-05-26T01:24:06.881Z,99.90
2019-05-26T01:26:36.213Z,99.90
2019-05-26T01:29:03.752Z,99.90
2019-05-26T01:31:32.366Z,99.90
2019-05-26T01:34:01.563Z,99.90
2019-05-26T01:36:30.041Z,99.90
2019-05-26T01:38:58.304Z,99.90
2019-05-26T01:41:25.995Z,99.90
2019-05-26T01:43:53.196Z,99.90
2019-05-26T01:46:21.379Z,99.90
2019-05-26T01:48:49.469Z,99.90
2019-05-26T01:51:16.696Z,99.90
2019-05-26T01:53:44.438Z,99.90
2019-05-26T01:56:11.791Z,99.90
2019-05-26T01:58:40.400Z,99.90
2019-05-26T02:01:07.550Z,99.90
2019-05-26T02:03:36.267Z,99.90
2019-05-26T02:06:04.458Z,99.90
2019-05-26T02:08:39.312Z,99.90
2019-05-26T02:11:02.118Z,99.90
2019-05-26T02:13:30.071Z,99.90
2019-05-26T02:15:57.374Z,99.90
2019-05-26T02:18:25.412Z,99.90
2019-05-26T02:20:54.258Z,99.90
2019-05-26T02:23:21.187Z,99.90
2019-05-26T02:25:49.980Z,99.90
2019-05-26T02:28:17.429Z,99.90
2019-05-26T02:30:44.506Z,99.90
2019-05-26T02:33:11.617Z,99.90
2019-05-26T02:35:39.853Z,99.90
2019-05-26T02:38:07.172Z,99.90
2019-05-26T02:40:35.476Z,99.90
2019-05-26T02:43:02.944Z,99.90
2019-05-26T02:45:31.239Z,99.90
2019-05-26T02:47:58.812Z,99.90
2019-05-26T02:50:26.131Z,99.90
2019-05-26T02:52:53.453Z,99.90
2019-05-26T02:55:20.976Z,99.90
2019-05-26T02:57:48.439Z,99.90
2019-05-26T03:00:36.449Z,99.90
2019-05-26T03:03:08.148Z,99.90
2019-05-26T03:05:35.788Z,99.90
2019-05-26T03:08:04.910Z,99.90
2019-05-26T03:10:33.656Z,99.90
2019-05-26T03:13:04.388Z,99.90
2019-05-26T03:15:33.882Z,99.90
2019-05-26T03:18:04.397Z,99.90
2019-05-26T03:20:39.973Z,99.90
2019-05-26T03:23:08.096Z,99.90
2019-05-26T03:25:38.790Z,99.90
2019-05-26T03:28:05.944Z,99.90
2019-05-26T03:30:34.080Z,99.90
2019-05-26T03:33:01.544Z,99.90
2019-05-26T03:35:31.948Z,99.90
2019-05-26T03:37:59.124Z,99.90
2019-05-26T03:40:29.423Z,99.90
2019-05-26T03:42:57.670Z,99.90
2019-05-26T03:45:49.758Z,99.90
2019-05-26T03:48:16.672Z,99.90
2019-05-26T03:50:44.987Z,99.90
2019-05-26T03:53:12.767Z,99.90
2019-05-26T03:55:42.294Z,99.90
2019-05-26T03:58:09.746Z,99.90
2019-05-26T04:00:38.940Z,99.90
2019-05-26T04:03:06.218Z,99.90
2019-05-26T04:05:33.969Z,99.90
2019-05-26T04:08:04.698Z,99.90
2019-05-26T04:10:30.777Z,99.90
2019-05-26T04:12:58.103Z,99.90
2019-05-26T04:15:25.276Z,99.90
2019-05-26T04:17:53.927Z,99.90
2019-05-26T04:20:21.449Z,99.90
2019-05-26T04:22:49.139Z,99.90
2019-05-26T04:25:16.621Z,99.90
2019-05-26T04:27:46.443Z,99.90
2019-05-26T04:30:13.984Z,99.90
2019-05-26T04:32:42.875Z,99.90
2019-05-26T04:35:10.345Z,99.90
2019-05-26T04:37:38.981Z,99.90
2019-05-26T04:40:24.785Z,99.90
2019-05-26T04:42:40.004Z,99.90
2019-05-26T04:45:08.070Z,99.90
2019-05-26T04:47:35.985Z,99.90
2019-05-26T04:50:04.104Z,99.90
2019-05-26T04:52:32.343Z,99.90
2019-05-26T04:54:59.841Z,99.90
2019-05-26T04:57:30.473Z,99.90
2019-05-26T04:59:58.432Z,99.90
2019-05-26T05:02:26.580Z,99.90
2019-05-26T05:04:53.959Z,99.90
2019-05-26T05:07:22.460Z,99.90
2019-05-26T05:09:49.753Z,99.90
2019-05-26T05:12:17.402Z,99.90
2019-05-26T05:14:44.898Z,99.90
2019-05-26T05:17:11.952Z,99.90
2019-05-26T05:19:39.484Z,99.90
2019-05-26T05:22:06.739Z,99.90
2019-05-26T05:24:34.835Z,99.90
2019-05-26T05:27:02.161Z,99.90
2019-05-26T05:29:31.695Z,99.90
2019-05-26T05:31:59.284Z,99.90
2019-05-26T05:34:27.619Z,99.90
2019-05-26T05:36:55.050Z,99.90
2019-05-26T05:39:23.261Z,99.90
2019-05-26T05:41:51.204Z,99.90
2019-05-26T05:44:19.000Z,99.90
2019-05-26T05:46:47.031Z,99.90
2019-05-26T05:49:14.302Z,99.90
2019-05-26T05:51:41.564Z,99.90
2019-05-26T05:54:08.938Z,99.90
2019-05-26T05:56:36.425Z,99.90
2019-05-26T05:59:04.226Z,99.90
2019-05-26T06:01:32.113Z,99.90
2019-05-26T06:03:59.132Z,99.90
2019-05-26T06:06:28.682Z,99.90
2019-05-26T06:08:56.060Z,99.90
2019-05-26T06:11:24.574Z,99.90
2019-05-26T06:13:52.347Z,99.90
2019-05-26T06:16:20.649Z,99.90
2019-05-26T06:18:48.187Z,99.90
2019-05-26T06:21:15.292Z,99.90
2019-05-26T06:23:42.317Z,99.90
2019-05-26T06:26:09.250Z,99.90
2019-05-26T06:28:37.723Z,99.90
2019-05-26T06:31:04.945Z,99.90
2019-05-26T06:33:33.587Z,99.90
2019-05-26T06:36:00.960Z,99.90
2019-05-26T06:38:29.769Z,99.90
2019-05-26T06:40:57.144Z,99.90
2019-05-26T06:43:24.740Z,99.90
2019-05-26T06:45:52.060Z,99.90
2019-05-26T06:48:19.283Z,99.90
2019-05-26T06:50:46.692Z,99.90
2019-05-26T06:53:14.003Z,99.90
2019-05-26T06:55:42.600Z,99.90
2019-05-26T06:58:10.774Z,99.90
2019-05-26T07:00:40.235Z,99.90
2019-05-26T07:03:07.319Z,99.90
2019-05-26T07:05:35.541Z,99.90
2019-05-26T07:08:02.810Z,99.90
2019-05-26T07:10:31.379Z,99.90
2019-05-26T07:12:58.763Z,99.90
2019-05-26T07:15:26.195Z,99.90
2019-05-26T07:17:53.583Z,99.90
2019-05-26T07:20:21.396Z,99.90
2019-05-26T07:22:48.444Z,99.90
2019-05-26T07:25:15.667Z,99.90
2019-05-26T07:27:43.783Z,99.90
2019-05-26T07:30:11.368Z,99.90
2019-05-26T07:32:41.267Z,99.90
2019-05-26T07:35:09.155Z,99.90
2019-05-26T07:37:39.276Z,99.90
2019-05-26T07:40:06.687Z,99.90
2019-05-26T07:42:35.577Z,99.90
2019-05-26T07:45:05.724Z,99.90
2019-05-26T07:47:33.852Z,99.90
2019-05-26T07:50:01.841Z,99.90
2019-05-26T07:52:31.636Z,99.90
2019-05-26T07:54:58.643Z,99.90
2019-05-26T07:57:27.597Z,99.90
2019-05-26T07:59:55.145Z,99.90
2019-05-26T08:02:25.292Z,99.90
2019-05-26T08:04:53.231Z,99.90
2019-05-26T08:07:23.349Z,99.90
2019-05-26T08:09:50.846Z,99.90
2019-05-26T08:12:26.996Z,99.90
2019-05-26T08:14:56.508Z,99.90
2019-05-26T08:17:23.930Z,99.90
2019-05-26T08:19:51.361Z,99.90
2019-05-26T08:22:18.871Z,99.90
2019-05-26T08:24:46.662Z,99.70
2019-05-26T08:27:14.783Z,97.40
2019-05-26T08:29:42.837Z,96.30
2019-05-26T08:32:10.803Z,96.10
2019-05-26T08:34:39.039Z,97.80
2019-05-26T08:37:07.264Z,98.00
2019-05-26T08:39:35.100Z,98.20
2019-05-26T08:42:05.148Z,95.80
2019-05-26T08:44:32.486Z,91.40
2019-05-26T08:47:02.639Z,91.40
2019-05-26T08:49:30.387Z,94.00
2019-05-26T08:51:58.388Z,92.30
2019-05-26T08:54:26.463Z,92.30
2019-05-26T08:56:56.084Z,88.60
2019-05-26T08:59:29.827Z,84.50
2019-05-26T09:01:57.436Z,85.20
2019-05-26T09:04:25.048Z,88.90
2019-05-26T09:06:52.734Z,83.00
2019-05-26T09:09:20.590Z,82.20
2019-05-26T09:11:50.416Z,81.70
2019-05-26T09:14:17.956Z,85.10
2019-05-26T09:16:47.904Z,86.60
2019-05-26T09:19:15.669Z,83.60
2019-05-26T09:21:44.586Z,83.60
2019-05-26T09:24:11.927Z,82.40
2019-05-26T09:26:40.838Z,84.50
2019-05-26T09:29:08.685Z,89.00
2019-05-26T09:31:39.615Z,86.50
2019-05-26T09:34:07.693Z,87.70
2019-05-26T09:36:37.320Z,82.70
2019-05-26T09:39:06.295Z,86.40
2019-05-26T09:41:34.294Z,82.30
2019-05-26T09:44:02.608Z,84.40
2019-05-26T09:46:31.642Z,79.60
2019-05-26T09:49:00.879Z,83.30
2019-05-26T09:51:30.255Z,78.90
2019-05-26T09:54:01.689Z,75.80
2019-05-26T09:56:27.295Z,78.50
2019-05-26T09:58:54.286Z,73.30
2019-05-26T10:01:23.925Z,68.40
2019-05-26T10:03:50.817Z,64.00
2019-05-26T10:06:21.156Z,65.50
2019-05-26T10:08:48.183Z,65.40
2019-05-26T10:11:17.907Z,65.40
2019-05-26T10:13:46.086Z,69.70
2019-05-26T10:16:16.024Z,66.20
2019-05-26T10:18:43.637Z,63.50
2019-05-26T10:21:14.127Z,60.80
2019-05-26T10:23:41.777Z,65.50
2019-05-26T10:26:10.434Z,65.60
2019-05-26T10:28:38.186Z,60.60
2019-05-26T10:31:06.988Z,59.80
2019-05-26T10:33:34.585Z,56.70
2019-05-26T10:36:06.477Z,56.30
2019-05-26T10:38:33.647Z,56.00
2019-05-26T10:41:05.598Z,53.30
2019-05-26T10:43:46.289Z,54.40
2019-05-26T10:46:02.499Z,56.00
2019-05-26T10:48:29.828Z,58.20
2019-05-26T10:50:59.788Z,54.70
2019-05-26T10:53:26.864Z,56.90
2019-05-26T10:55:55.289Z,51.70
2019-05-26T10:58:22.691Z,52.60
2019-05-26T11:00:53.163Z,54.50
2019-05-26T11:03:20.221Z,56.70
2019-05-26T11:05:50.590Z,55.80
2019-05-26T11:08:17.709Z,56.60
2019-05-26T11:10:45.772Z,53.60
2019-05-26T11:13:13.016Z,51.40
2019-05-26T11:15:42.699Z,51.80
2019-05-26T11:18:09.979Z,53.10
2019-05-26T11:20:37.820Z,51.80
2019-05-26T11:23:04.975Z,54.80
2019-05-26T11:25:32.123Z,53.90
2019-05-26T11:27:59.179Z,51.40
2019-05-26T11:30:27.014Z,49.30
2019-05-26T11:32:59.456Z,49.90
2019-05-26T11:35:25.752Z,49.00
2019-05-26T11:37:57.518Z,52.20
2019-05-26T11:40:24.792Z,54.70
2019-05-26T11:42:51.924Z,55.00
2019-05-26T11:45:19.332Z,51.20
2019-05-26T11:47:48.044Z,50.20
2019-05-26T11:50:16.215Z,50.50
2019-05-26T11:52:44.403Z,47.60
2019-05-26T11:55:11.830Z,44.90
2019-05-26T11:57:40.669Z,44.20
2019-05-26T12:00:10.020Z,47.50
2019-05-26T12:02:40.775Z,45.60
2019-05-26T12:05:08.464Z,45.30
2019-05-26T12:07:38.247Z,45.00
2019-05-26T12:10:05.778Z,48.90
2019-05-26T12:12:35.672Z,45.90
2019-05-26T12:15:04.260Z,44.30
2019-05-26T12:17:32.541Z,46.10
2019-05-26T12:19:59.738Z,44.40
2019-05-26T12:22:28.145Z,44.40
2019-05-26T12:24:55.984Z,45.10
2019-05-26T12:27:27.082Z,45.80
2019-05-26T12:29:54.441Z,46.10
2019-05-26T12:32:23.111Z,44.90
2019-05-26T12:34:50.515Z,42.60
2019-05-26T12:37:19.125Z,44.60
2019-05-26T12:39:47.383Z,46.70
2019-05-26T12:42:18.266Z,43.90
2019-05-26T12:44:49.464Z,45.50
2019-05-26T12:47:17.532Z,46.50
2019-05-26T12:49:44.599Z,45.90
2019-05-26T12:52:14.109Z,43.30
2019-05-26T12:54:42.998Z,42.70
2019-05-26T12:57:13.199Z,47.50
2019-05-26T12:59:40.770Z,44.70
2019-05-26T13:02:09.819Z,44.40
2019-05-26T13:04:37.237Z,42.50
2019-05-26T13:07:07.165Z,44.20
2019-05-26T13:09:35.338Z,43.30
2019-05-26T13:12:04.456Z,45.20
2019-05-26T13:14:32.315Z,46.80
2019-05-26T13:17:01.874Z,45.10
2019-05-26T13:19:32.915Z,47.10
2019-05-26T13:22:00.317Z,44.00
2019-05-26T13:24:27.404Z,45.30
2019-05-26T13:26:56.196Z,43.30
2019-05-26T13:29:25.877Z,43.50
2019-05-26T13:31:54.241Z,44.80
2019-05-26T13:34:21.770Z,44.00
2019-05-26T13:36:51.424Z,44.60
2019-05-26T13:39:18.769Z,46.00
2019-05-26T13:41:48.557Z,46.50
2019-05-26T13:44:15.951Z,43.40
2019-05-26T13:46:46.322Z,44.20
2019-05-26T13:49:13.497Z,43.00
2019-05-26T13:51:43.146Z,44.30
2019-05-26T13:54:10.397Z,43.20
2019-05-26T13:56:39.951Z,46.10
2019-05-26T13:59:07.266Z,45.40
2019-05-26T14:01:35.521Z,47.40
2019-05-26T14:04:11.292Z,45.90
2019-05-26T14:06:38.484Z,44.10
2019-05-26T14:09:08.649Z,43.50
2019-05-26T14:11:36.224Z,42.30
2019-05-26T14:14:04.143Z,42.10
2019-05-26T14:16:34.242Z,45.80
2019-05-26T14:19:03.183Z,45.70
2019-05-26T14:21:30.703Z,44.70
2019-05-26T14:23:57.869Z,46.40
2019-05-26T14:26:25.832Z,45.20
2019-05-26T14:28:53.595Z,44.70
2019-05-26T14:31:22.451Z,43.60
2019-05-26T14:33:49.679Z,46.60
2019-05-26T14:36:18.519Z,45.60
2019-05-26T14:38:46.972Z,43.10
2019-05-26T14:41:15.971Z,41.50
2019-05-26T14:43:43.165Z,42.70
2019-05-26T14:46:11.654Z,41.90
2019-05-26T14:48:38.749Z,44.70
2019-05-26T14:51:07.199Z,43.60
2019-05-26T14:53:34.770Z,45.80
2019-05-26T14:56:03.742Z,45.10
2019-05-26T14:58:31.694Z,43.90
2019-05-26T15:00:58.807Z,43.90
2019-05-26T15:03:26.198Z,43.70
2019-05-26T15:06:05.415Z,43.50
2019-05-26T15:08:22.688Z,43.40
2019-05-26T15:10:49.877Z,43.70
2019-05-26T15:13:19.052Z,44.10
2019-05-26T15:15:46.344Z,48.00
2019-05-26T15:18:15.398Z,48.20
2019-05-26T15:20:42.555Z,47.40
2019-05-26T15:23:12.807Z,44.60
2019-05-26T15:25:39.809Z,46.60
2019-05-26T15:28:10.073Z,43.90
2019-05-26T15:30:37.066Z,43.70
2019-05-26T15:33:06.876Z,44.80
2019-05-26T15:35:34.768Z,44.30
2019-05-26T15:38:06.356Z,43.30
2019-05-26T15:40:35.627Z,42.90
2019-05-26T15:43:03.115Z,44.10
2019-05-26T15:45:30.971Z,47.50
2019-05-26T15:47:58.757Z,47.30
2019-05-26T15:50:26.110Z,50.70
2019-05-26T15:52:55.452Z,50.00
2019-05-26T15:55:23.271Z,48.20
2019-05-26T15:57:52.297Z,47.50
2019-05-26T16:00:19.676Z,45.00
2019-05-26T16:02:47.735Z,46.50
2019-05-26T16:05:15.754Z,46.80
2019-05-26T16:07:43.871Z,46.80
2019-05-26T16:10:11.747Z,47.80
2019-05-26T16:12:39.290Z,49.40
2019-05-26T16:15:07.402Z,49.50
2019-05-26T16:17:38.573Z,46.60
2019-05-26T16:20:05.614Z,45.70
2019-05-26T16:22:34.119Z,48.50
2019-05-26T16:25:01.010Z,46.60
2019-05-26T16:27:28.080Z,45.60
2019-05-26T16:29:56.966Z,47.90
2019-05-26T16:32:23.905Z,46.60
2019-05-26T16:34:53.189Z,46.60
2019-05-26T16:37:20.504Z,47.00
2019-05-26T16:39:48.818Z,47.80
2019-05-26T16:42:17.466Z,47.00
2019-05-26T16:44:46.291Z,46.90
2019-05-26T16:47:13.604Z,47.50
2019-05-26T16:49:41.785Z,47.50
2019-05-26T16:52:10.486Z,46.30
2019-05-26T16:54:37.885Z,47.10
2019-05-26T16:57:05.448Z,47.30
2019-05-26T16:59:32.858Z,48.60
2019-05-26T17:01:59.991Z,49.30
2019-05-26T17:04:26.914Z,49.10
2019-05-26T17:06:55.444Z,49.10
2019-05-26T17:09:23.289Z,48.90
2019-05-26T17:11:51.470Z,51.30
2019-05-26T17:14:19.325Z,51.10
2019-05-26T17:16:47.639Z,50.40
2019-05-26T17:19:15.394Z,50.50
2019-05-26T17:21:43.039Z,50.20
2019-05-26T17:24:11.922Z,51.20
2019-05-26T17:26:39.396Z,49.90
2019-05-26T17:29:07.669Z,52.10
2019-05-26T17:31:34.783Z,52.40
2019-05-26T17:34:03.819Z,50.60
2019-05-26T17:36:30.854Z,49.00
2019-05-26T17:38:58.879Z,48.80
2019-05-26T17:41:26.574Z,49.00
2019-05-26T17:43:56.963Z,48.70
2019-05-26T17:46:24.454Z,48.90
2019-05-26T17:48:52.369Z,49.30
2019-05-26T17:51:19.708Z,50.50
2019-05-26T17:53:48.813Z,49.70
2019-05-26T17:56:16.360Z,51.00
2019-05-26T17:58:44.450Z,50.60
2019-05-26T18:01:11.750Z,50.70
2019-05-26T18:03:39.343Z,50.90
2019-05-26T18:06:09.159Z,52.20
2019-05-26T18:08:37.063Z,51.20
2019-05-26T18:11:05.299Z,53.10
2019-05-26T18:13:32.573Z,54.60
2019-05-26T18:16:01.451Z,53.10
2019-05-26T18:18:28.578Z,51.60
2019-05-26T18:20:56.830Z,52.10
2019-05-26T18:23:24.445Z,52.60
2019-05-26T18:25:53.088Z,52.50
2019-05-26T18:28:20.463Z,53.00
2019-05-26T18:30:48.572Z,53.30
2019-05-26T18:33:16.091Z,53.50
2019-05-26T18:35:44.411Z,55.70
2019-05-26T18:38:11.794Z,55.80
2019-05-26T18:40:40.545Z,56.80
2019-05-26T18:43:08.204Z,57.80
2019-05-26T18:45:35.275Z,58.00
2019-05-26T18:48:03.815Z,58.80
2019-05-26T18:50:31.238Z,59.40
2019-05-26T18:52:59.960Z,59.40
2019-05-26T18:55:27.030Z,59.90
2019-05-26T18:57:57.014Z,59.90
2019-05-26T19:00:30.672Z,60.20
2019-05-26T19:02:54.700Z,60.60
2019-05-26T19:05:33.083Z,60.80
2019-05-26T19:07:51.089Z,61.20
2019-05-26T19:10:19.011Z,61.20
2019-05-26T19:12:47.902Z,61.70
2019-05-26T19:15:17.927Z,62.40
2019-05-26T19:17:45.962Z,62.20
2019-05-26T19:20:17.231Z,63.20
2019-05-26T19:22:47.534Z,63.10
2019-05-26T19:25:14.649Z,63.00
2019-05-26T19:27:42.452Z,64.00
2019-05-26T19:30:10.575Z,63.70
2019-05-26T19:32:38.105Z,64.70
2019-05-26T19:35:05.563Z,65.20
2019-05-26T19:37:36.218Z,63.80
2019-05-26T19:40:03.665Z,64.80
2019-05-26T19:42:31.962Z,64.70
2019-05-26T19:44:59.680Z,64.70
2019-05-26T19:47:28.847Z,64.80
2019-05-26T19:49:56.052Z,65.00
2019-05-26T19:52:24.145Z,65.40
2019-05-26T19:54:51.472Z,65.30
2019-05-26T19:57:18.482Z,65.80
2019-05-26T19:59:45.755Z,67.50
2019-05-26T20:02:18.355Z,68.70
2019-05-26T20:04:42.096Z,68.50
2019-05-26T20:07:09.327Z,70.60
2019-05-26T20:09:37.303Z,72.60
2019-05-26T20:12:04.789Z,71.80
2019-05-26T20:14:35.237Z,71.90
2019-05-26T20:17:02.781Z,72.60
2019-05-26T20:19:31.620Z,73.10
2019-05-26T20:22:01.115Z,74.10
2019-05-26T20:24:29.285Z,75.10
2019-05-26T20:26:56.727Z,75.90
2019-05-26T20:29:25.659Z,76.60
2019-05-26T20:31:52.944Z,77.70
2019-05-26T20:34:22.190Z,78.00
2019-05-26T20:36:49.648Z,78.70
2019-05-26T20:39:17.311Z,79.90
2019-05-26T20:41:44.523Z,82.00
2019-05-26T20:44:11.810Z,82.50
2019-05-26T20:46:39.019Z,83.30
2019-05-26T20:49:06.118Z,84.10
2019-05-26T20:51:36.129Z,84.80
2019-05-26T20:54:05.528Z,84.90
2019-05-26T20:56:33.401Z,86.00
2019-05-26T20:59:00.771Z,85.40
2019-05-26T21:01:31.155Z,86.00
2019-05-26T21:03:58.896Z,85.70
2019-05-26T21:06:26.935Z,85.70
2019-05-26T21:08:53.985Z,86.80
2019-05-26T21:11:23.399Z,87.20
2019-05-26T21:13:51.282Z,88.00
2019-05-26T21:16:20.469Z,88.80
2019-05-26T21:18:48.091Z,89.60
2019-05-26T21:21:16.597Z,90.00
2019-05-26T21:23:44.534Z,90.10
2019-05-26T21:26:12.413Z,90.40
2019-05-26T21:28:40.370Z,90.90
2019-05-26T21:31:07.391Z,91.20
2019-05-26T21:33:34.975Z,92.10
2019-05-26T21:36:02.201Z,92.00
2019-05-26T21:38:31.297Z,92.50
2019-05-26T21:40:58.290Z,92.70
2019-05-26T21:43:26.070Z,93.10
2019-05-26T21:45:53.689Z,93.60
2019-05-26T21:48:22.018Z,94.80
2019-05-26T21:50:49.469Z,95.90
2019-05-26T21:53:16.916Z,96.80
2019-05-26T21:55:44.148Z,96.80
2019-05-26T21:58:11.033Z,96.70
2019-05-26T22:00:43.296Z,96.90
2019-05-26T22:03:10.301Z,97.30
2019-05-26T22:05:37.222Z,97.40
2019-05-26T22:08:04.612Z,97.90
2019-05-26T22:10:32.139Z,98.70
2019-05-26T22:12:59.423Z,99.50
2019-05-26T22:15:29.960Z,99.90
2019-05-26T22:17:57.442Z,99.90
2019-05-26T22:20:25.514Z,99.90
2019-05-26T22:22:53.270Z,99.90
2019-05-26T22:25:24.084Z,99.90
2019-05-26T22:27:52.153Z,99.90
2019-05-26T22:30:21.295Z,99.90
2019-05-26T22:32:48.591Z,99.90
2019-05-26T22:35:17.848Z,99.90
2019-05-26T22:37:45.156Z,99.90
2019-05-26T22:40:12.920Z,99.90
2019-05-26T22:42:41.252Z,99.90
2019-05-26T22:45:09.213Z,99.90
2019-05-26T22:47:37.041Z,99.90
2019-05-26T22:50:04.396Z,99.90
2019-05-26T22:52:31.479Z,99.90
2019-05-26T22:54:58.498Z,99.90
2019-05-26T22:57:27.079Z,99.90
2019-05-26T22:59:54.576Z,99.90
2019-05-26T23:02:23.087Z,99.90
2019-05-26T23:04:50.762Z,99.90
2019-05-26T23:07:19.907Z,99.90
2019-05-26T23:09:47.006Z,99.90
2019-05-26T23:12:15.288Z,99.90
2019-05-26T23:14:42.604Z,99.90
2019-05-26T23:17:09.634Z,99.90
2019-05-26T23:19:36.582Z,99.90
2019-05-26T23:22:05.635Z,99.90
2019-05-26T23:24:33.055Z,99.90
2019-05-26T23:27:00.145Z,99.90
2019-05-26T23:29:28.245Z,99.90
2019-05-26T23:31:56.093Z,99.90
2019-05-26T23:34:26.209Z,99.90
2019-05-26T23:36:53.116Z,99.90
2019-05-26T23:39:21.994Z,99.90
2019-05-26T23:41:49.471Z,99.90
2019-05-26T23:44:19.009Z,99.90
2019-05-26T23:46:46.829Z,99.90
2019-05-26T23:49:15.915Z,99.90
2019-05-26T23:51:43.648Z,99.90
2019-05-26T23:54:12.166Z,99.90
2019-05-26T23:56:39.968Z,99.90
2019-05-26T23:59:06.890Z,99.90
